• Join FlightAware (Why Join?)
  • Login
  • US Flag 
05:22AM EDT


 

Airport Tracker/Info


-or-


 

Live Flight TrackerFlight Track Log ✈ UAL6118 ✈ 28-Apr-2013 ✈ KSGF - KORD

Flight Track Log - Related Links

Times and Time Zones

All times are in EDT time to prevent confusion due to time zone crossing. See the UAL6118 flight status page for this flight to view local times or setup timezone preferences in your user account.

Time Position Orientation Groundspeed Altitude Reporting Facility
EDT Latitude Longitude Course Direction KTS MPH feet Rate Location/Type
07:47PM 37.2647 -93.2847 35° Northeast 231 266 5,600  Level Kansas City Center
07:48PM 37.3303 -93.2419 27° Northeast 247 284 8,000 2,460 Climbing Kansas City Center
07:50PM 37.4128 -93.1897 27° Northeast 264 304 10,800 1,920 Climbing Kansas City Center
07:51PM 37.4850 -93.1414 28° Northeast 285 328 12,000 1,020 Climbing Kansas City Center
07:52PM 37.7288 -92.9742 35° Northeast  Level FlightAware Approximate
07:52PM 37.5681 -93.0875 27° Northeast 320 368 13,000  Level Kansas City Center
07:53PM 37.8103 -92.9008 35° Northeast  Level FlightAware Approximate
07:53PM 37.6572 -93.0308 27° Northeast 339 390 14,000  Level Kansas City Center
07:54PM 37.7497 -92.9664 29° Northeast 371 427 14,900 900 Climbing Kansas City Center
07:55PM 37.8364 -92.8889 35° Northeast 378 435 15,900 960 Climbing Kansas City Center
07:56PM 37.9244 -92.8067 36° Northeast 386 444 16,900 960 Climbing Kansas City Center
07:57PM 38.0189 -92.7167 37° Northeast 391 450 18,000 960 Climbing Kansas City Center
07:58PM 38.1075 -92.6342 36° Northeast 393 452 18,900 960 Climbing Kansas City Center
07:59PM 38.2100 -92.5369 37° Northeast 395 455 20,100 960 Climbing Kansas City Center
08:00PM 38.3019 -92.4506 36° Northeast 402 463 21,000 900 Climbing Kansas City Center
08:01PM 38.3939 -92.3633 37° Northeast 406 467 22,000 960 Climbing Kansas City Center
08:02PM 38.4850 -92.2753 37° Northeast 408 470 23,000 960 Climbing Kansas City Center
08:03PM 38.5769 -92.1875 37° Northeast 410 472 24,000 900 Climbing Kansas City Center
08:04PM 38.6692 -92.0992 37° Northeast 410 472 24,900 900 Climbing Kansas City Center
08:05PM 38.7608 -92.0103 37° Northeast 411 473 25,900 960 Climbing Kansas City Center
08:06PM 38.8511 -91.9225 37° Northeast 409 471 26,900 960 Climbing Kansas City Center
08:07PM 38.9597 -91.8175 37° Northeast 407 468 28,000 960 Climbing Kansas City Center
08:08PM 39.0483 -91.7303 37° Northeast 404 465 29,000 960 Climbing Kansas City Center
08:09PM 39.1367 -91.6453 37° Northeast 401 461 30,000 900 Climbing Kansas City Center
08:10PM 39.2264 -91.5578 37° Northeast 402 463 30,900 480 Climbing Kansas City Center
08:11PM 39.3183 -91.4686 37° Northeast 406 467 31,000  Climbing Kansas City Center
08:12PM 39.4125 -91.3750 38° Northeast 416 479 31,000  Level Kansas City Center
08:13PM 39.5119 -91.2769 37° Northeast 435 501 31,000  Level Kansas City Center
08:14PM 39.6100 -91.1781 38° Northeast 441 507 31,000  Level Kansas City Center
08:15PM 39.7269 -91.0625 37° Northeast 441 507 31,000  Level Kansas City Center
08:16PM 39.8219 -90.9672 38° Northeast 444 511 31,000  Level Kansas City Center
08:17PM 39.9189 -90.8692 38° Northeast 443 510 31,000  Level Kansas City Center
08:18PM 40.0158 -90.7703 38° Northeast 441 507 31,000  Level Kansas City Center
08:19PM 40.1133 -90.6728 37° Northeast 441 507 31,000  Level Kansas City Center
08:20PM 40.1883 -90.5964 38° Northeast 443 510 31,000  Level Chicago Center
08:21PM 40.2894 -90.4936 38° Northeast 445 512 31,000  Level Chicago Center
08:22PM 40.3864 -90.3944 38° Northeast 442 509 31,000  Level Chicago Center
08:23PM 40.4839 -90.2947 38° Northeast 443 510 31,000  Level Chicago Center
08:24PM 40.5836 -90.1917 38° Northeast 446 513 31,000  Level Chicago Center
08:25PM 40.6775 -90.0911 39° Northeast 440 506 31,000 -420 Level Chicago Center
08:26PM 40.7772 -89.9922 37° Northeast 447 514 30,200 -1,500 Descending Chicago Center
08:27PM 40.8922 -89.8717 38° Northeast 442 509 27,900 -2,100 Descending Chicago Center
08:28PM 40.9869 -89.7708 39° Northeast 439 505 25,900 -1,860 Descending Chicago Center
08:29PM 41.0917 -89.6606 38° Northeast 445 512 24,100 -1,500 Descending Chicago Center
08:30PM 41.1794 -89.5436 45° Northeast 450 518 22,800 -1,320 Descending Chicago Center
08:31PM 41.2381 -89.3989 62° Northeast 446 513 21,400 -1,620 Descending Chicago Center
08:32PM 41.2947 -89.2558 62° Northeast 438 504 19,500 -2,280 Descending Chicago Center
08:34PM 41.3531 -89.1086 62° Northeast 415 478 16,800 -2,520 Descending Chicago Center
08:35PM 41.3769 -88.9817 76° East 367 422 14,300 -2,400 Descending Chicago Center
08:36PM 41.3836 -88.8572 86° East 347 399 11,900 -1,620 Descending Chicago Center
08:37PM 41.4361 -88.7589 55° Northeast 326 375 11,000 -480 Descending Chicago Center
08:38PM 41.4914 -88.6644 52° Northeast 324 373 11,000  Level Chicago Center
08:39PM 41.5592 -88.5478 52° Northeast 330 380 11,000 -420 Level Chicago Center
08:40PM 41.6153 -88.4547 51° Northeast 323 372 10,200 -1,020 Descending Chicago Center
08:41PM 41.6667 -88.3828 46° Northeast 278 320 8,900 -1,500 Descending Chicago Center
08:42PM 41.7344 -88.3492 20° North 259 298 7,200 -960 Descending Chicago Center
08:43PM 41.8028 -88.3122 22° Northeast 263 303 7,000 -360 Descending Chicago Center
08:44PM 41.8597 -88.2764 25° Northeast 229 264 6,500 -1,140 Descending Chicago Center
08:45PM 41.9247 -88.2253 30° Northeast 227 261 4,700 -1,560 Descending Chicago Center
08:46PM 41.9592 -88.1594 55° Northeast 233 268 3,300 -960 Descending Chicago Center
08:47PM 41.9667 -88.0667 84° East 199 229 2,600 -780 Descending Chicago TRACON
08:48PM 41.9667 -88.0000 90° East 153 176 1,700 -840 Descending Chicago TRACON
08:49PM 41.9667 -87.9500 90° East 140 161 1,000 -720 Descending Chicago TRACON
08:51PM 41.9667 -87.9000 76° East  Level FlightAware Approximate
08:58PM 41.9817 -87.9067 76° East  Level Estimated